Time;durP1;ratioP1;P1;durP2;ratioP2;P2;SDS_P1;SDS_P2;PMS_P1;PMS_P2;Temp;Humidity;BMP_temperature;BMP_pressure;BME280_temperature;BME280_humidity;BME280_pressure;Samples;Min_cycle;Max_cycle;Signal;HPM_P1;HPM_P2
2022/10/26 00:00:08;;;;;;;5.17;3.87;;;;;;;16.29;100.00;101820.81;2053597;28;20626;-67
2022/10/26 00:01:13;;;;;;;5.33;4.17;;;;;;;16.52;100.00;101852.59;2053533;28;20284;-67
2022/10/26 00:02:14;;;;;;;7.50;3.93;;;;;;;16.52;100.00;101848.56;2053873;28;20444;-67
2022/10/26 00:03:15;;;;;;;5.67;4.13;;;;;;;16.53;100.00;101857.72;2056409;28;21038;-67
2022/10/26 00:04:16;;;;;;;5.80;3.70;;;;;;;16.21;100.00;101810.28;2053798;28;20194;-67
2022/10/26 00:05:16;;;;;;;7.33;4.00;;;;;;;16.52;100.00;101850.56;2054469;28;20970;-67
2022/10/26 00:06:19;;;;;;;6.73;3.77;;;;;;;16.45;100.00;101850.78;2053687;28;20267;-67
2022/10/26 00:07:19;;;;;;;4.67;3.40;;;;;;;16.48;100.00;101843.50;2054107;28;20273;-67
2022/10/26 00:08:19;;;;;;;5.40;3.70;;;;;;;16.43;100.00;101847.63;2053914;28;20435;-68
2022/10/26 00:09:20;;;;;;;7.47;3.77;;;;;;;16.41;100.00;101844.50;2056321;28;20234;-68
2022/10/26 00:10:20;;;;;;;5.83;3.60;;;;;;;16.39;100.00;101844.16;2054034;28;20200;-68
2022/10/26 00:11:21;;;;;;;5.23;3.63;;;;;;;16.37;100.00;101852.16;2053783;28;20202;-68
2022/10/26 00:12:21;;;;;;;8.57;3.77;;;;;;;16.35;100.00;101832.25;2053942;28;20202;-67
2022/10/26 00:13:22;;;;;;;5.30;3.10;;;;;;;16.04;100.00;101789.19;2054497;28;20695;-67
2022/10/26 00:14:23;;;;;;;6.40;3.50;;;;;;;16.30;100.00;101833.56;2054841;28;20197;-67
2022/10/26 00:15:23;;;;;;;7.67;3.37;;;;;;;16.34;100.00;101847.47;2055612;28;20195;-67
2022/10/26 00:16:26;;;;;;;4.50;3.10;;;;;;;16.35;100.00;101858.19;2054270;28;20668;-67
2022/10/26 00:17:27;;;;;;;4.73;3.17;;;;;;;16.37;100.00;101847.38;2054135;28;20184;-67
2022/10/26 00:18:27;;;;;;;5.80;3.40;;;;;;;16.31;100.00;101849.16;2053900;28;20464;-67
2022/10/26 00:19:27;;;;;;;6.47;3.20;;;;;;;16.33;100.00;101851.47;2053889;28;20191;-67
2022/10/26 00:20:28;;;;;;;4.80;2.80;;;;;;;16.34;100.00;101847.47;2054326;28;20575;-67
2022/10/26 00:21:28;;;;;;;5.67;3.00;;;;;;;16.33;100.00;101846.69;2055360;28;20213;-67
2022/10/26 00:22:29;;;;;;;4.03;2.80;;;;;;;16.35;100.00;101846.25;2054144;28;20242;-67
2022/10/26 00:23:30;;;;;;;4.03;3.20;;;;;;;16.02;100.00;101822.38;2053738;28;20292;-67
2022/10/26 00:24:30;;;;;;;5.50;3.20;;;;;;;16.32;100.00;101847.13;2053785;28;20683;-67
2022/10/26 00:25:31;;;;;;;5.37;3.63;;;;;;;16.35;100.00;101851.84;2053836;28;21015;-67
2022/10/26 00:26:31;;;;;;;5.40;3.20;;;;;;;16.42;100.00;101849.66;2055126;28;20189;-67
2022/10/26 00:27:35;;;;;;;5.10;3.00;;;;;;;16.45;100.00;101856.38;2055160;28;20191;-67
2022/10/26 00:28:36;;;;;;;5.57;2.90;;;;;;;16.42;100.00;101862.84;2053895;28;20638;-67
2022/10/26 00:29:36;;;;;;;4.37;2.97;;;;;;;16.42;100.00;101864.88;2053747;28;20893;-67
2022/10/26 00:30:40;;;;;;;4.20;3.07;;;;;;;16.43;100.00;101864.41;2053877;28;20205;-67
2022/10/26 00:31:40;;;;;;;5.33;3.10;;;;;;;16.43;100.00;101865.22;2053411;28;20193;-67
2022/10/26 00:32:40;;;;;;;3.80;2.77;;;;;;;15.63;100.00;101742.38;2053675;28;20435;-67
2022/10/26 00:33:41;;;;;;;4.70;3.03;;;;;;;16.43;100.00;101865.22;2055894;28;20261;-67
2022/10/26 00:34:42;;;;;;;6.40;2.97;;;;;;;16.46;100.00;101866.34;2054082;28;20207;-67
2022/10/26 00:35:42;;;;;;;4.13;2.80;;;;;;;16.49;100.00;101871.81;2053567;28;20652;-67
2022/10/26 00:36:43;;;;;;;4.33;2.87;;;;;;;16.40;100.00;101854.13;2053847;28;20198;-67
2022/10/26 00:37:43;;;;;;;5.50;3.20;;;;;;;16.52;100.00;101872.19;2053487;28;20189;-67
2022/10/26 00:38:52;;;;;;;5.23;3.23;;;;;;;16.52;100.00;101872.19;2055934;28;20229;-67
2022/10/26 00:39:52;;;;;;;5.33;2.87;;;;;;;16.53;100.00;101872.53;2053889;28;20200;-67
2022/10/26 00:40:53;;;;;;;5.60;3.10;;;;;;;16.54;100.00;101878.91;2053288;28;20464;-67
2022/10/26 00:41:53;;;;;;;6.03;3.33;;;;;;;16.54;100.00;101873.31;2053742;28;20214;-67
2022/10/26 00:42:54;;;;;;;5.23;2.97;;;;;;;16.55;100.00;101869.28;2056072;28;20288;-67
2022/10/26 00:43:55;;;;;;;5.37;3.27;;;;;;;16.54;100.00;101870.53;2053730;28;20612;-67
2022/10/26 00:44:59;;;;;;;5.37;2.90;;;;;;;16.54;100.00;101874.09;2054179;28;20193;-67
2022/10/26 00:46:01;;;;;;;4.13;2.73;;;;;;;16.55;100.00;101872.09;2053883;28;20917;-67
2022/10/26 00:47:04;;;;;;;5.70;2.90;;;;;;;15.73;100.00;101744.09;2053965;28;21013;-67
2022/10/26 00:48:11;;;;;;;4.90;2.60;;;;;;;16.47;100.00;101867.91;2053448;28;20515;-67
2022/10/26 00:49:19;;;;;;;5.10;3.10;;;;;;;15.54;100.00;101744.22;2054194;28;20815;-67
2022/10/26 00:50:35;;;;;;;4.63;2.93;;;;;;;16.40;100.00;101865.31;2052788;28;20441;-67
2022/10/26 00:51:40;;;;;;;3.93;2.93;;;;;;;16.35;100.00;101874.22;2052105;28;20438;-67
2022/10/26 00:52:41;;;;;;;4.27;2.80;;;;;;;16.34;100.00;101859.44;2053673;28;20845;-67
2022/10/26 00:53:43;;;;;;;4.10;3.00;;;;;;;16.30;100.00;101863.56;2054535;28;20516;-67
2022/10/26 00:54:44;;;;;;;4.50;3.00;;;;;;;16.31;100.00;101856.75;2054007;28;21633;-67
2022/10/26 00:55:48;;;;;;;4.60;3.30;;;;;;;16.28;100.00;101874.41;2053735;28;20977;-67
2022/10/26 00:56:52;;;;;;;4.60;3.13;;;;;;;15.43;100.00;101727.75;2053927;28;20454;-67
2022/10/26 00:57:53;;;;;;;5.03;3.17;;;;;;;16.30;100.00;101867.13;2053549;28;20460;-67
2022/10/26 00:58:58;;;;;;;4.70;3.10;;;;;;;16.30;100.00;101869.16;2053831;28;20444;-67
2022/10/26 00:59:59;;;;;;;5.07;3.20;;;;;;;16.25;100.00;101858.50;2053032;28;20648;-67
2022/10/26 01:01:00;;;;;;;4.83;3.40;;;;;;;16.26;100.00;101863.66;2055239;28;20514;-67
2022/10/26 01:02:00;;;;;;;7.23;3.67;;;;;;;16.25;100.00;101866.91;2053467;28;20442;-67
2022/10/26 01:03:05;;;;;;;3.90;3.00;;;;;;;16.24;100.00;101863.31;2053693;28;20206;-67
2022/10/26 01:04:05;;;;;;;5.57;2.93;;;;;;;16.23;100.00;101861.75;2053541;28;20225;-67
2022/10/26 01:05:06;;;;;;;6.77;3.30;;;;;;;15.67;100.00;101798.19;2054040;28;20937;-67
2022/10/26 01:06:08;;;;;;;4.13;3.40;;;;;;;16.06;100.00;101857.44;2052512;28;20187;-67
2022/10/26 01:07:09;;;;;;;10.37;3.50;;;;;;;15.74;100.00;101809.97;2055778;28;20171;-67
2022/10/26 01:08:10;;;;;;;6.37;3.27;;;;;;;16.00;100.00;101862.00;2053515;28;20449;-67
2022/10/26 01:09:12;;;;;;;7.27;3.63;;;;;;;15.99;100.00;101866.00;2053793;28;20225;-67
2022/10/26 01:10:12;;;;;;;4.30;3.47;;;;;;;15.80;100.00;101850.13;2053599;28;20450;-67
2022/10/26 01:11:13;;;;;;;6.77;3.80;;;;;;;15.90;100.00;101870.66;2053534;28;20491;-67
2022/10/26 01:12:14;;;;;;;6.63;3.50;;;;;;;15.91;100.00;101863.81;2053321;28;20185;-67
2022/10/26 01:13:16;;;;;;;5.87;3.77;;;;;;;15.93;100.00;101872.56;2055936;28;20251;-67
2022/10/26 01:14:19;;;;;;;6.23;3.60;;;;;;;15.91;100.00;101875.00;2053535;28;20194;-67
2022/10/26 01:15:30;;;;;;;5.30;3.43;;;;;;;15.91;100.00;101869.41;2053625;28;20944;-67
2022/10/26 01:16:36;;;;;;;5.67;3.23;;;;;;;15.94;100.00;101872.13;2053794;28;20448;-67
2022/10/26 01:17:54;;;;;;;4.83;3.33;;;;;;;15.88;100.00;101868.28;2053552;28;20839;-67
2022/10/26 01:19:07;;;;;;;5.63;3.67;;;;;;;15.84;100.00;101866.81;2053835;28;20449;-67
2022/10/26 01:20:26;;;;;;;7.40;3.73;;;;;;;15.80;100.00;101871.69;2053240;28;21009;-67
2022/10/26 01:21:40;;;;;;;6.93;3.33;;;;;;;15.78;100.00;101872.13;2053459;28;20811;-67
2022/10/26 01:22:55;;;;;;;4.93;3.27;;;;;;;15.71;100.00;101866.72;2053679;28;20473;-67
2022/10/26 01:24:20;;;;;;;5.30;3.53;;;;;;;15.70;100.00;101872.75;2052809;28;20479;-67
2022/10/26 01:25:43;;;;;;;4.77;3.80;;;;;;;15.63;100.00;101870.91;2054786;28;20449;-67
2022/10/26 01:27:02;;;;;;;5.43;3.43;;;;;;;15.63;100.00;101881.31;2053559;28;20419;-67
2022/10/26 01:28:25;;;;;;;5.77;3.90;;;;;;;15.60;100.00;101877.41;2052313;28;20421;-67
2022/10/26 01:29:55;;;;;;;7.83;3.70;;;;;;;15.59;100.00;101873.03;2052019;28;20431;-67
2022/10/26 01:30:59;;;;;;;5.83;3.50;;;;;;;15.55;100.00;101879.91;2052510;28;20452;-67
2022/10/26 01:32:11;;;;;;;6.53;3.93;;;;;;;14.65;100.00;101753.19;2053369;28;20803;-67
2022/10/26 01:33:29;;;;;;;4.63;3.30;;;;;;;15.47;100.00;101876.50;2053572;28;20448;-67
2022/10/26 01:34:35;;;;;;;6.53;3.97;;;;;;;15.45;100.00;101883.75;2053367;28;20530;-67
2022/10/26 01:35:58;;;;;;;6.30;4.03;;;;;;;15.42;100.00;101882.59;2052537;28;20533;-67
2022/10/26 01:37:08;;;;;;;4.67;3.50;;;;;;;15.40;100.00;101878.69;2053579;28;20515;-67
2022/10/26 01:38:29;;;;;;;10.23;3.60;;;;;;;15.27;100.00;101870.16;2053328;28;20457;-67
2022/10/26 01:39:38;;;;;;;5.13;3.90;;;;;;;15.34;100.00;101874.84;2053887;28;20481;-67
2022/10/26 01:40:49;;;;;;;4.70;4.10;;;;;;;15.29;100.00;101897.66;2053707;28;20449;-67
2022/10/26 01:41:57;;;;;;;7.30;3.60;;;;;;;15.29;100.00;101873.31;2053337;28;20944;-67
2022/10/26 01:43:03;;;;;;;6.03;3.80;;;;;;;14.40;100.00;101741.78;2053789;28;20456;-67
2022/10/26 01:44:20;;;;;;;7.67;3.87;;;;;;;15.18;100.00;101875.59;2053073;28;20426;-67
2022/10/26 01:45:21;;;;;;;5.60;3.80;;;;;;;15.17;100.00;101871.19;2053802;28;21205;-67
2022/10/26 01:46:24;;;;;;;6.60;4.07;;;;;;;15.15;100.00;101870.06;2053412;28;20853;-67
2022/10/26 01:47:27;;;;;;;6.00;3.90;;;;;;;14.57;100.00;101781.66;2053824;28;20186;-67
2022/10/26 01:48:28;;;;;;;6.50;4.00;;;;;;;15.16;100.00;101883.59;2054997;28;20967;-67
2022/10/26 01:49:34;;;;;;;6.90;4.40;;;;;;;15.17;100.00;101882.38;2053428;28;20785;-67
2022/10/26 01:50:36;;;;;;;5.53;3.90;;;;;;;15.10;100.00;101868.56;2053191;28;20489;-67
2022/10/26 01:51:39;;;;;;;7.23;4.30;;;;;;;15.16;100.00;101872.44;2053144;28;20453;-67
2022/10/26 01:52:40;;;;;;;6.20;3.90;;;;;;;15.19;100.00;101868.78;2053621;28;20446;-67
2022/10/26 01:53:45;;;;;;;5.67;3.70;;;;;;;15.17;100.00;101873.22;2053391;28;20927;-67
2022/10/26 01:54:46;;;;;;;4.20;3.77;;;;;;;15.23;100.00;101875.06;2053143;28;20175;-67
2022/10/26 01:55:50;;;;;;;4.93;3.70;;;;;;;15.24;100.00;101878.63;2055356;28;20461;-67
2022/10/26 01:56:58;;;;;;;5.07;3.77;;;;;;;15.26;100.00;101876.97;2053783;28;20193;-67
2022/10/26 01:58:10;;;;;;;6.90;4.13;;;;;;;15.18;100.00;101856.03;2053388;28;20995;-67
2022/10/26 01:59:31;;;;;;;6.47;4.37;;;;;;;15.24;100.00;101873.84;2053233;28;20569;-67
2022/10/26 02:00:37;;;;;;;5.77;4.10;;;;;;;15.15;100.00;101870.06;2053076;28;20858;-67
2022/10/26 02:01:46;;;;;;;5.60;4.33;;;;;;;15.17;100.00;101876.00;2053180;28;20450;-67
2022/10/26 02:02:59;;;;;;;5.73;4.20;;;;;;;15.16;100.00;101872.44;2053646;28;20512;-67
2022/10/26 02:04:11;;;;;;;6.33;4.10;;;;;;;15.10;100.00;101879.75;2053194;28;20460;-67
2022/10/26 02:05:21;;;;;;;5.40;4.20;;;;;;;15.15;100.00;101881.22;2053506;28;20478;-67
2022/10/26 02:06:27;;;;;;;9.53;4.50;;;;;;;15.15;100.00;101881.22;2053028;28;20563;-67
2022/10/26 02:07:48;;;;;;;4.90;4.27;;;;;;;15.20;100.00;101877.91;2053367;28;20516;-67
2022/10/26 02:09:19;;;;;;;7.03;4.00;;;;;;;15.22;100.00;101875.50;2053484;28;20489;-67
2022/10/26 02:10:31;;;;;;;6.13;4.27;;;;;;;15.21;100.00;101885.88;2054827;28;20445;-67
2022/10/26 02:11:37;;;;;;;6.10;4.20;;;;;;;15.23;100.00;101888.25;2054268;28;20960;-67
2022/10/26 02:12:44;;;;;;;5.97;4.23;;;;;;;14.69;100.00;101806.09;2053443;28;21047;-67
2022/10/26 02:13:51;;;;;;;7.00;4.70;;;;;;;15.15;100.00;101884.03;2053428;28;20810;-67
2022/10/26 02:15:38;;;;;;;7.50;4.13;;;;;;;15.17;100.00;101884.38;2053490;28;20481;-67
2022/10/26 02:16:54;;;;;;;8.07;4.40;;;;;;;15.25;100.00;101885.78;2051921;28;20439;-67
2022/10/26 02:18:22;;;;;;;6.17;4.30;;;;;;;15.23;100.00;101883.44;2053466;28;21173;-67
2022/10/26 02:19:31;;;;;;;5.57;3.87;;;;;;;15.24;100.00;101878.63;2054394;28;20571;-67
2022/10/26 02:20:43;;;;;;;4.80;3.37;;;;;;;14.40;100.00;101746.59;2054729;28;20483;-67
2022/10/26 02:21:51;;;;;;;6.10;3.67;;;;;;;15.11;100.00;101850.59;2054673;28;20429;-67
2022/10/26 02:22:54;;;;;;;4.93;3.40;;;;;;;15.36;100.00;101880.78;2054764;28;20427;-67
2022/10/26 02:23:58;;;;;;;5.37;3.63;;;;;;;15.31;100.00;101887.63;2056058;28;20472;-67
2022/10/26 02:25:04;;;;;;;5.50;3.20;;;;;;;14.97;100.00;101811.06;2056968;28;20433;-67
2022/10/26 02:26:07;;;;;;;4.60;3.30;;;;;;;15.38;100.00;101879.09;2054925;28;20964;-67
2022/10/26 02:27:14;;;;;;;7.70;3.87;;;;;;;15.33;100.00;101873.28;2054848;28;20446;-67
2022/10/26 02:28:24;;;;;;;5.93;3.50;;;;;;;15.36;100.00;101878.00;2054996;28;20447;-67
2022/10/26 02:29:26;;;;;;;7.83;3.30;;;;;;;14.35;100.00;101727.56;2054876;28;20489;-67
2022/10/26 02:30:27;;;;;;;5.40;3.20;;;;;;;14.86;100.00;101808.50;2054828;28;20457;-67
2022/10/26 02:31:31;;;;;;;3.90;3.13;;;;;;;14.68;100.00;101780.22;2054632;28;20426;-67
2022/10/26 02:32:36;;;;;;;7.20;3.33;;;;;;;15.32;100.00;101883.63;2054665;28;20566;-67
2022/10/26 02:33:40;;;;;;;6.63;3.70;;;;;;;15.28;100.00;101876.56;2056918;28;20422;-67
2022/10/26 02:34:44;;;;;;;5.03;3.27;;;;;;;15.26;100.00;101879.78;2056325;28;21054;-67
2022/10/26 02:35:49;;;;;;;4.40;2.90;;;;;;;15.28;100.00;101884.94;2054807;28;20454;-67
2022/10/26 02:36:51;;;;;;;5.17;3.10;;;;;;;15.29;100.00;101878.13;2054903;28;21042;-67
2022/10/26 02:37:54;;;;;;;4.40;3.17;;;;;;;15.23;100.00;101882.66;2054446;28;20947;-67
2022/10/26 02:38:56;;;;;;;4.43;3.07;;;;;;;14.84;100.00;101827.69;2054932;28;20519;-67
2022/10/26 02:40:00;;;;;;;6.57;3.53;;;;;;;15.14;100.00;101879.66;2054506;28;20436;-67
2022/10/26 02:41:03;;;;;;;4.03;3.03;;;;;;;14.52;100.00;101782.97;2054241;28;20505;-67
2022/10/26 02:42:07;;;;;;;5.93;3.20;;;;;;;15.17;100.00;101873.22;2056725;28;20432;-68
2022/10/26 02:43:13;;;;;;;5.80;2.90;;;;;;;15.17;100.00;101881.59;2055377;28;20846;-68
2022/10/26 02:44:23;;;;;;;4.37;3.30;;;;;;;15.22;100.00;101876.28;2054601;28;20979;-67
2022/10/26 02:45:30;;;;;;;6.87;3.20;;;;;;;14.54;100.00;101779.72;2055100;28;20529;-67
2022/10/26 02:46:31;;;;;;;5.37;3.50;;;;;;;15.15;100.00;101876.44;2054898;28;20831;-67
2022/10/26 02:47:32;;;;;;;7.27;3.20;;;;;;;15.17;100.00;101876.00;2053834;28;20454;-67
2022/10/26 02:48:33;;;;;;;4.53;3.63;;;;;;;15.20;100.00;101875.13;2053755;28;20194;-67
2022/10/26 02:49:34;;;;;;;6.07;3.43;;;;;;;14.77;100.00;101815.91;2054682;28;20946;-67
2022/10/26 02:50:49;;;;;;;4.97;3.73;;;;;;;15.16;100.00;101880.81;2056600;28;20963;-68
2022/10/26 02:51:57;;;;;;;4.80;3.70;;;;;;;15.15;100.00;101887.63;2056146;28;20647;-68
2022/10/26 02:53:13;;;;;;;4.43;3.60;;;;;;;14.54;100.00;101791.69;2056552;28;20476;-67
2022/10/26 02:54:25;;;;;;;5.87;3.57;;;;;;;14.58;100.00;101799.97;2056395;28;20423;-68
2022/10/26 02:55:47;;;;;;;4.63;3.70;;;;;;;15.12;100.00;101887.69;2055795;28;20480;-68
2022/10/26 02:57:13;;;;;;;5.47;3.90;;;;;;;15.01;100.00;101882.34;2054981;28;20476;-68
2022/10/26 02:58:21;;;;;;;5.97;3.90;;;;;;;15.12;100.00;101896.84;2053839;28;20449;-68
2022/10/26 02:59:25;;;;;;;6.03;4.00;;;;;;;15.11;100.00;101892.47;2054181;28;20523;-67
2022/10/26 03:00:25;;;;;;;6.70;4.10;;;;;;;15.10;100.00;101890.13;2056353;28;20429;-67
2022/10/26 03:01:28;;;;;;;4.93;3.70;;;;;;;14.65;100.00;101819.38;2054682;28;20528;-67
2022/10/26 03:02:29;;;;;;;6.90;4.30;;;;;;;15.14;100.00;101893.63;2054894;28;20687;-67
2022/10/26 03:03:29;;;;;;;5.30;3.73;;;;;;;14.73;100.00;101841.09;2054670;28;20523;-67
2022/10/26 03:04:32;;;;;;;6.20;3.80;;;;;;;15.00;100.00;101893.94;2054536;28;20465;-67
2022/10/26 03:05:32;;;;;;;6.97;4.13;;;;;;;15.06;100.00;101895.78;2054523;28;20585;-67
2022/10/26 03:06:33;;;;;;;5.93;4.10;;;;;;;15.08;100.00;101890.56;2055116;28;20438;-67
2022/10/26 03:07:33;;;;;;;5.80;3.97;;;;;;;15.03;100.00;101890.28;2056474;28;20198;-67
2022/10/26 03:08:34;;;;;;;6.50;4.50;;;;;;;15.02;100.00;101900.66;2054557;28;20191;-67
2022/10/26 03:09:34;;;;;;;5.03;4.33;;;;;;;14.99;100.00;101897.94;2054400;28;20603;-67
2022/10/26 03:10:40;;;;;;;5.10;4.10;;;;;;;15.01;100.00;101895.53;2054533;28;20521;-68
2022/10/26 03:11:40;;;;;;;6.60;4.07;;;;;;;15.00;100.00;101903.09;2054188;28;20206;-67
2022/10/26 03:12:40;;;;;;;7.40;4.10;;;;;;;14.98;100.00;101899.97;2054103;28;20457;-67
2022/10/26 03:13:41;;;;;;;6.80;4.50;;;;;;;15.00;100.00;101896.72;2056286;28;20257;-67
2022/10/26 03:14:41;;;;;;;7.43;4.53;;;;;;;14.99;100.00;101893.16;2054627;28;20210;-67
2022/10/26 03:15:42;;;;;;;6.30;4.20;;;;;;;15.05;100.00;101907.38;2054397;28;20239;-67
2022/10/26 03:16:42;;;;;;;5.87;3.90;;;;;;;15.05;100.00;101896.22;2054659;28;20195;-67
2022/10/26 03:17:43;;;;;;;5.70;4.10;;;;;;;15.02;100.00;101892.28;2053111;28;20614;-67
2022/10/26 03:18:43;;;;;;;6.73;4.27;;;;;;;14.92;100.00;101887.75;2054426;28;20194;-67
2022/10/26 03:19:44;;;;;;;5.80;4.07;;;;;;;14.97;100.00;101903.19;2055658;28;20261;-67
2022/10/26 03:20:44;;;;;;;7.47;4.10;;;;;;;14.95;100.00;101900.81;2054587;28;20257;-67
2022/10/26 03:21:45;;;;;;;5.40;4.20;;;;;;;14.79;100.00;101889.59;2053125;28;20207;-67
2022/10/26 03:22:48;;;;;;;5.33;4.50;;;;;;;14.82;100.00;101888.75;2053790;28;20190;-68
2022/10/26 03:23:49;;;;;;;4.90;4.20;;;;;;;14.91;100.00;101902.88;2054154;28;20258;-67
2022/10/26 03:24:49;;;;;;;6.47;4.13;;;;;;;14.95;100.00;101906.41;2054946;28;20426;-67
2022/10/26 03:25:50;;;;;;;6.30;4.37;;;;;;;14.33;100.00;101803.28;2055779;28;20485;-67
2022/10/26 03:26:50;;;;;;;6.20;4.60;;;;;;;14.96;100.00;101907.97;2054659;28;20955;-67
2022/10/26 03:27:59;;;;;;;5.23;4.47;;;;;;;14.90;100.00;101904.13;2054363;28;20752;-67
2022/10/26 03:28:59;;;;;;;6.27;4.67;;;;;;;14.42;100.00;101836.97;2053436;28;20342;-67
2022/10/26 03:29:59;;;;;;;5.63;4.90;;;;;;;14.91;100.00;101907.72;2052972;28;20650;-67
2022/10/26 03:31:00;;;;;;;6.80;4.73;;;;;;;14.86;100.00;101905.41;2053991;28;20183;-67
2022/10/26 03:32:00;;;;;;;8.47;4.57;;;;;;;14.90;100.00;101904.13;2056254;28;20183;-67
2022/10/26 03:33:01;;;;;;;5.00;4.27;;;;;;;14.84;100.00;101908.63;2054841;28;20191;-67
2022/10/26 03:34:01;;;;;;;5.60;4.80;;;;;;;14.82;100.00;101901.91;2054119;28;20565;-67
2022/10/26 03:35:02;;;;;;;5.53;4.77;;;;;;;14.78;100.00;101896.41;2054358;28;20215;-67
2022/10/26 03:36:03;;;;;;;6.53;4.73;;;;;;;14.19;100.00;101800.00;2054102;28;20263;-67
2022/10/26 03:37:03;;;;;;;5.73;5.13;;;;;;;14.86;100.00;101905.41;2054404;28;20773;-68
2022/10/26 03:38:04;;;;;;;8.77;5.63;;;;;;;14.71;100.00;101887.41;2056133;28;20179;-68
2022/10/26 03:39:04;;;;;;;7.27;5.33;;;;;;;14.78;100.00;101904.78;2054067;28;20202;-68
2022/10/26 03:40:05;;;;;;;5.60;5.07;;;;;;;14.79;100.00;101905.53;2053140;28;20187;-68
2022/10/26 03:41:06;;;;;;;6.27;5.40;;;;;;;14.77;100.00;101897.63;2054038;28;20195;-67
2022/10/26 03:42:06;;;;;;;6.00;5.20;;;;;;;14.77;100.00;101908.78;2054092;28;20437;-67
2022/10/26 03:43:07;;;;;;;9.10;5.50;;;;;;;14.81;100.00;101898.31;2054188;28;20235;-67
2022/10/26 03:44:07;;;;;;;6.30;5.10;;;;;;;14.81;100.00;101900.34;2056192;28;20183;-67
2022/10/26 03:45:08;;;;;;;5.83;5.23;;;;;;;13.88;100.00;101751.22;2054661;28;20222;-67
2022/10/26 03:46:09;;;;;;;6.33;5.07;;;;;;;14.81;100.00;101901.13;2054378;28;20187;-67
2022/10/26 03:47:09;;;;;;;6.33;5.20;;;;;;;14.80;100.00;101904.34;2054579;28;20457;-67
2022/10/26 03:48:10;;;;;;;7.90;5.17;;;;;;;13.97;100.00;101773.72;2052887;28;20218;-67
2022/10/26 03:49:10;;;;;;;7.20;5.27;;;;;;;14.67;100.00;101881.91;2054121;28;20191;-67
2022/10/26 03:50:13;;;;;;;8.97;5.30;;;;;;;14.79;100.00;101897.19;2055855;28;20220;-68
2022/10/26 03:51:14;;;;;;;6.10;5.00;;;;;;;14.52;100.00;101863.06;2054693;28;20274;-67
2022/10/26 03:52:14;;;;;;;6.50;5.10;;;;;;;14.73;100.00;101907.28;2054257;28;20450;-67
2022/10/26 03:53:14;;;;;;;5.93;4.30;;;;;;;14.81;100.00;101905.94;2054403;28;20712;-67
2022/10/26 03:54:15;;;;;;;6.10;4.60;;;;;;;14.81;100.00;101917.09;2053937;28;20357;-67
2022/10/26 03:55:15;;;;;;;6.03;4.40;;;;;;;14.81;100.00;101912.28;2054293;28;20195;-67
2022/10/26 03:56:16;;;;;;;6.80;3.83;;;;;;;14.22;100.00;101825.03;2056040;28;20256;-67
2022/10/26 03:57:16;;;;;;;6.47;3.90;;;;;;;14.84;100.00;101921.78;2054509;28;20262;-67
2022/10/26 03:58:17;;;;;;;4.77;3.67;;;;;;;14.84;100.00;101907.84;2054200;28;20244;-67
2022/10/26 03:59:18;;;;;;;4.87;4.10;;;;;;;14.05;100.00;101786.31;2054197;28;20199;-67
2022/10/26 04:00:18;;;;;;;8.67;4.57;;;;;;;14.81;100.00;101905.94;2053931;28;20195;-67
2022/10/26 04:01:19;;;;;;;5.13;3.80;;;;;;;14.79;100.00;101911.94;2052390;28;20190;-67
2022/10/26 04:02:19;;;;;;;6.80;3.90;;;;;;;14.73;100.00;101915.66;2055250;28;20219;-67
2022/10/26 04:03:19;;;;;;;7.57;4.20;;;;;;;14.72;100.00;101917.66;2054023;28;20222;-67
2022/10/26 04:04:20;;;;;;;5.10;3.77;;;;;;;14.74;100.00;101898.47;2053756;28;20657;-67
2022/10/26 04:05:21;;;;;;;5.27;3.80;;;;;;;14.73;100.00;101907.28;2053466;28;20206;-67
2022/10/26 04:06:21;;;;;;;5.30;3.70;;;;;;;14.74;100.00;101911.63;2053292;28;20232;-67
2022/10/26 04:07:21;;;;;;;4.93;3.80;;;;;;;14.86;100.00;101913.78;2053773;28;20191;-67
2022/10/26 04:08:22;;;;;;;5.70;3.47;;;;;;;14.82;100.00;101905.50;2055141;28;20289;-67
2022/10/26 04:09:22;;;;;;;5.43;3.57;;;;;;;14.29;100.00;101824.88;2053556;28;20688;-67
2022/10/26 04:10:24;;;;;;;4.77;3.40;;;;;;;14.57;100.00;101894.06;2053415;28;20261;-67
2022/10/26 04:11:25;;;;;;;7.40;3.50;;;;;;;14.87;100.00;101918.16;2053268;28;20194;-67
2022/10/26 04:12:25;;;;;;;5.67;3.20;;;;;;;14.71;100.00;101910.50;2053418;28;20449;-67
2022/10/26 04:13:26;;;;;;;4.93;3.20;;;;;;;14.74;100.00;101917.22;2054221;28;20175;-67
2022/10/26 04:14:26;;;;;;;4.60;3.13;;;;;;;14.85;100.00;101923.38;2055168;28;20191;-67
2022/10/26 04:15:27;;;;;;;5.27;3.40;;;;;;;14.81;100.00;101923.44;2054047;28;20282;-67
2022/10/26 04:16:28;;;;;;;5.50;3.50;;;;;;;14.83;100.00;101926.59;2053650;28;20548;-67
2022/10/26 04:17:28;;;;;;;4.30;3.10;;;;;;;14.82;100.00;101927.03;2053332;28;20473;-67
2022/10/26 04:18:29;;;;;;;6.00;3.70;;;;;;;14.80;100.00;101929.47;2053569;28;20677;-67
2022/10/26 04:19:29;;;;;;;5.40;3.77;;;;;;;14.85;100.00;101926.19;2053872;28;20270;-67
2022/10/26 04:20:32;;;;;;;4.50;3.53;;;;;;;14.88;100.00;101919.72;2055074;28;20186;-67
2022/10/26 04:21:32;;;;;;;6.50;3.50;;;;;;;14.91;100.00;101938.41;2053607;28;20278;-67
2022/10/26 04:22:33;;;;;;;6.87;3.80;;;;;;;14.82;100.00;101904.69;2053488;28;20518;-67
2022/10/26 04:23:33;;;;;;;5.23;3.87;;;;;;;14.51;100.00;101847.56;2053228;28;20218;-67
2022/10/26 04:24:34;;;;;;;5.37;3.73;;;;;;;15.04;100.00;101928.16;2053134;28;20679;-67
2022/10/26 04:25:34;;;;;;;5.37;3.70;;;;;;;14.94;100.00;101923.56;2054075;28;20266;-67
2022/10/26 04:26:34;;;;;;;5.57;3.97;;;;;;;14.87;100.00;101916.16;2055365;28;20195;-67
2022/10/26 04:27:35;;;;;;;8.10;3.80;;;;;;;14.66;100.00;101876.75;2053627;28;20195;-67
2022/10/26 04:28:35;;;;;;;6.43;4.13;;;;;;;14.98;100.00;101922.31;2053539;28;20180;-67
2022/10/26 04:29:36;;;;;;;5.80;4.00;;;;;;;14.91;100.00;101927.25;2053360;28;20547;-67
2022/10/26 04:30:37;;;;;;;5.50;3.80;;;;;;;14.88;100.00;101928.91;2053273;28;20203;-67
2022/10/26 04:31:37;;;;;;;6.20;4.23;;;;;;;14.99;100.00;101923.06;2053609;28;20197;-67
2022/10/26 04:32:38;;;;;;;5.83;4.37;;;;;;;15.00;100.00;101933.00;2055035;28;20449;-67
2022/10/26 04:33:38;;;;;;;5.37;3.80;;;;;;;14.99;100.00;101929.44;2053436;28;20183;-67
2022/10/26 04:34:39;;;;;;;4.83;3.63;;;;;;;15.06;100.00;101928.53;2053185;28;20342;-67
2022/10/26 04:35:39;;;;;;;7.17;3.90;;;;;;;14.94;100.00;101945.91;2053157;28;20671;-67
2022/10/26 04:36:40;;;;;;;5.20;4.13;;;;;;;14.98;100.00;101929.88;2053197;28;20241;-67
2022/10/26 04:37:40;;;;;;;5.20;3.87;;;;;;;14.97;100.00;101934.66;2055114;28;20214;-67
2022/10/26 04:38:41;;;;;;;5.60;4.00;;;;;;;14.93;100.00;101930.38;2054729;28;20183;-67
2022/10/26 04:39:41;;;;;;;4.33;3.90;;;;;;;15.01;100.00;101929.03;2053288;28;20248;-67
2022/10/26 04:40:42;;;;;;;5.83;3.97;;;;;;;14.75;100.00;101902.06;2053394;28;20198;-67
2022/10/26 04:41:42;;;;;;;5.33;3.80;;;;;;;14.99;100.00;101923.88;2052815;28;20195;-67
2022/10/26 04:42:44;;;;;;;5.27;4.00;;;;;;;15.10;100.00;101932.00;2053315;28;20700;-67
2022/10/26 04:43:45;;;;;;;6.20;3.90;;;;;;;14.87;100.00;101910.56;2055355;28;20211;-67
2022/10/26 04:44:45;;;;;;;5.23;4.17;;;;;;;14.94;100.00;101932.75;2054083;28;20443;-67
2022/10/26 04:45:45;;;;;;;5.50;4.30;;;;;;;14.99;100.00;101929.44;2052696;28;20641;-67
2022/10/26 04:46:46;;;;;;;6.60;4.00;;;;;;;14.93;100.00;101925.59;2053709;28;20179;-68
2022/10/26 04:47:46;;;;;;;6.87;4.50;;;;;;;14.87;100.00;101909.78;2049839;28;20199;-67
2022/10/26 04:48:47;;;;;;;6.63;4.23;;;;;;;14.99;100.00;101932.25;2052663;28;20668;-67
2022/10/26 04:49:48;;;;;;;6.43;4.17;;;;;;;15.08;100.00;101932.44;2055051;28;20189;-67
2022/10/26 04:50:48;;;;;;;5.60;4.00;;;;;;;15.06;100.00;101937.66;2053158;28;20700;-67
2022/10/26 04:51:49;;;;;;;5.80;4.47;;;;;;;14.56;100.00;101866.59;2052815;28;20199;-67
2022/10/26 04:52:49;;;;;;;9.33;4.57;;;;;;;14.23;100.00;101818.25;2053482;28;20222;-67
2022/10/26 04:53:52;;;;;;;7.07;4.73;;;;;;;15.01;100.00;101940.19;2053116;28;20669;-67